GSVT2: Red River, Gainesville, TX

                                SHEF ID:       GSVT2     Red River near Gainesville, TX
STATION TYPE:
Regulating: Stage = 25.00, Flow = 54054

PRECIP STAGE RIV-FLOW BAT-LOAD
in ft cfs volt
Ccp-Rev Ccp-Rev Ccp-Rev Ccp-Rev
(America/Chicago)
04/29 00:00 0.00 5.89 924 12.41
04/29 01:00 0.00 5.90 931 12.41
04/29 02:00 0.00 5.93 950 12.41
04/29 03:00 0.00 5.95 963 12.41
04/29 04:00 0.01 5.97 976 12.41
04/29 05:00 0.00 6.00 996 12.41
04/29 06:00 0.00 6.04 1023 12.41
04/29 07:00 0.00 6.09 1054 12.41
04/29 08:00 0.00 6.14 1079 12.41
04/29 09:00 0.00 6.20 1109 12.57
04/29 10:00 0.00 6.26 1141 12.97
04/29 11:00 0.00 6.32 1172 13.29
04/29 12:00 0.00 6.38 1205 13.29
04/29 13:00 0.00 6.43 1233 13.29
04/29 14:00 0.00 6.49 1267 13.29
04/29 15:00 0.00 6.54 1296 13.29
04/29 16:00 0.00 6.58 1319 13.29
04/29 17:00 0.00 6.61 1337 13.29
04/29 18:00 0.00 6.65 1361 13.29
04/29 19:00 0.00 6.69 1386 13.21
04/29 20:00 0.00 6.73 1410 12.97
04/29 21:00 0.00 6.76 1429 12.65
04/29 22:00 0.00 6.79 1448 12.49
04/29 23:00 0.00 6.82 1467 12.41
Data processed at Thu 30Apr2026 04:32 GMT

NOTICE: If you are parsing this page

Please convert to using our Data API. Starting early 2026 we will be migrating to: https://water.usace.army.mil with modern pages rendered in JavaScript. When this migration completes you will no longer be able to scrape this page! CWMSDataAPI (CDA)

Timeseries IDs (TSIDs)

TSIDs used from left to right in the data table
GAIN.Precip-Inc.Total.1Hour.1Hour.Ccp-Rev
GAIN.Stage.Inst.1Hour.0.Ccp-Rev
GAIN.Flow.Inst.1Hour.0.Ccp-Rev
GAIN.Volt-Battery Load.Inst.1Hour.0.Ccp-Rev

                            

All information presented herein is the property of the government of the United States of America and may be revised or deleted at any time without prior notice. Dissemination of this information without the expressed written consent of the Public Affairs Office, Tulsa District U.S. Army Corps of Engineers is strictly prohibited. These data are gathered electronically and, as presented, have NOT undergone any form of quality control. These data are NOT guaranteed to be valid or correct.